| Time | Avg. Air Temp | Dew Point | Avg. Rel Humidity | Avg. 2 Min Wind Speed | Max Gust Velocity | MGV Time | MGV Direction | Avg. Spot Wind Velocity |
|---|---|---|---|---|---|---|---|---|
| 2026-05-03 11:15:00 | 5° C | -5° C | 48% | 12 km/h | 19 km/h | 11:13:00 | NW | 12 km/h |
| 10:15:00 | 4° C | -5° C | 51% | 3 km/h | 13 km/h | 10:12:00 | NE | 5 km/h |
| 09:15:00 | 4° C | -6° C | 51% | 13 km/h | 15 km/h | 09:15:00 | NW | 10 km/h |
| 08:15:00 | 3° C | -6° C | 52% | 10 km/h | 14 km/h | 08:15:00 | N | 7 km/h |
| 07:15:00 | 3° C | -6° C | 50% | 16 km/h | 18 km/h | 07:11:00 | NW | 16 km/h |
| 06:15:00 | 3° C | -6° C | 52% | 18 km/h | 21 km/h | 06:15:00 | W | 18 km/h |
| 05:15:00 | 3° C | -6° C | 50% | 17 km/h | 20 km/h | 05:13:00 | NW | 17 km/h |
| 04:15:00 | 3° C | -6° C | 50% | 21 km/h | 24 km/h | 04:13:00 | NW | 22 km/h |
| 03:15:00 | 3° C | -6° C | 50% | 16 km/h | 22 km/h | 03:13:00 | W | 17 km/h |
| 02:15:00 | 4° C | -6° C | 49% | 20 km/h | 22 km/h | 02:14:00 | W | 18 km/h |
| 01:15:00 | 4° C | -6° C | 49% | 13 km/h | 17 km/h | 01:11:00 | W | 14 km/h |
| 00:15:00 | 4° C | -6° C | 46% | 18 km/h | 20 km/h | 00:14:00 | W | 17 km/h |
| 23:15:00 | 5° C | -6° C | 46% | 20 km/h | 24 km/h | 23:12:00 | NW | 19 km/h |
| 22:15:00 | 5° C | -6° C | 44% | 15 km/h | 21 km/h | 22:11:00 | NW | 15 km/h |
| 21:15:00 | 5° C | -6° C | 43% | 18 km/h | 19 km/h | 21:15:00 | NW | 16 km/h |
| 20:15:00 | 5° C | -7° C | 43% | 13 km/h | 14 km/h | 20:15:00 | NW | 11 km/h |
| 19:15:00 | 6° C | -6° C | 44% | 8 km/h | 15 km/h | 19:13:00 | N | 7 km/h |
| 18:15:00 | 6° C | -5° C | 45% | 3 km/h | 16 km/h | 18:12:00 | E | 7 km/h |
| 17:15:00 | 6° C | -5° C | 45% | 6 km/h | 12 km/h | 17:14:00 | SW | 6 km/h |
| 16:15:00 | 6° C | -4° C | 49% | 12 km/h | 18 km/h | 16:14:00 | W | 11 km/h |
| 15:15:00 | 5° C | -4° C | 49% | 5 km/h | 14 km/h | 15:14:00 | NW | 6 km/h |
| 14:15:00 | 5° C | -5° C | 50% | 6 km/h | 18 km/h | 14:11:00 | NE | 9 km/h |
| 13:15:00 | 5° C | -5° C | 51% | 1 km/h | 16 km/h | 13:11:00 | W | 3 km/h |
| 12:15:00 | 4° C | -4° C | 55% | 11 km/h | 16 km/h | 12:15:00 | NW | 8 km/h |
Subpeak Weather
| Time | Avg. Air Temp | Dew Point | Avg. Rel Humidity | Avg. 2 Min Wind Speed | Max Gust Velocity | MGV Time | MGV Direction | Avg. Spot Wind Velocity |
|---|---|---|---|---|---|---|---|---|
| 2026-05-03 11:15:00 | 5° C | -5° C | 48% | 12 km/h | 19 km/h | 11:13:00 | NW | 12 km/h |
| 11:10:00 | 5° C | -5° C | 49% | 10 km/h | 15 km/h | 11:09:00 | NW | 11 km/h |
| 11:05:00 | 5° C | -5° C | 49% | 7 km/h | 15 km/h | 11:01:00 | W | 7 km/h |
| 11:00:00 | 5° C | -5° C | 48% | 8 km/h | 12 km/h | 10:56:00 | W | 8 km/h |
| 10:55:00 | 5° C | -5° C | 49% | 10 km/h | 15 km/h | 10:55:00 | NW | 9 km/h |
| 10:50:00 | 5° C | -5° C | 50% | 10 km/h | 18 km/h | 10:48:00 | W | 11 km/h |
| 10:45:00 | 4° C | -5° C | 51% | 11 km/h | 14 km/h | 10:45:00 | NW | 10 km/h |
| 10:40:00 | 4° C | -5° C | 51% | 5 km/h | 12 km/h | 10:37:00 | N | 5 km/h |
| 10:35:00 | 4° C | -5° C | 51% | 6 km/h | 16 km/h | 10:32:00 | NW | 8 km/h |
| 10:30:00 | 4° C | -5° C | 50% | 12 km/h | 16 km/h | 10:26:00 | NW | 12 km/h |
| 10:25:00 | 4° C | -5° C | 51% | 12 km/h | 14 km/h | 10:25:00 | NW | 9 km/h |
| 10:20:00 | 4° C | -5° C | 51% | 8 km/h | 14 km/h | 10:20:00 | NW | 8 km/h |
| 10:15:00 | 4° C | -5° C | 51% | 3 km/h | 13 km/h | 10:12:00 | NE | 5 km/h |




